createdAt,value
2024-05-09T00:00:46.190Z,98751.88
2024-05-09T00:03:14.026Z,98749.38
2024-05-09T00:05:42.427Z,98750.19
2024-05-09T00:08:11.081Z,98746.69
2024-05-09T00:10:40.225Z,98748.13
2024-05-09T00:13:10.669Z,98747.09
2024-05-09T00:15:39.196Z,98751.56
2024-05-09T00:18:07.855Z,98746.00
2024-05-09T00:20:39.624Z,98750.09
2024-05-09T00:23:12.065Z,98748.22
2024-05-09T00:25:43.068Z,98744.53
2024-05-09T00:28:14.271Z,98739.16
2024-05-09T00:30:41.826Z,98748.38
2024-05-09T00:33:10.793Z,98747.31
2024-05-09T00:35:39.443Z,98740.94
2024-05-09T00:38:07.389Z,98746.66
2024-05-09T00:40:40.265Z,98751.16
2024-05-09T00:43:11.417Z,98747.03
2024-05-09T00:45:39.554Z,98745.41
2024-05-09T00:48:09.518Z,98756.22
2024-05-09T00:50:41.105Z,98749.66
2024-05-09T00:53:14.515Z,98749.84
2024-05-09T00:55:42.886Z,98746.75
2024-05-09T00:58:12.899Z,98747.78
2024-05-09T01:00:41.640Z,98744.50
2024-05-09T01:03:12.139Z,98744.88
2024-05-09T01:05:42.425Z,98742.63
2024-05-09T01:08:12.149Z,98745.03
2024-05-09T01:10:43.765Z,98752.97
2024-05-09T01:13:13.096Z,98746.56
2024-05-09T01:15:40.709Z,98743.31
2024-05-09T01:18:11.702Z,98743.66
2024-05-09T01:20:43.320Z,98753.84
2024-05-09T01:23:15.127Z,98747.91
2024-05-09T01:25:46.192Z,98747.09
2024-05-09T01:28:15.314Z,98754.44
2024-05-09T01:30:42.989Z,98754.00
2024-05-09T01:33:12.117Z,98752.72
2024-05-09T01:35:42.202Z,98746.97
2024-05-09T01:38:17.433Z,98755.31
2024-05-09T01:40:46.154Z,98748.38
2024-05-09T01:43:13.889Z,98753.06
2024-05-09T01:45:41.812Z,98749.97
2024-05-09T01:48:10.778Z,98749.31
2024-05-09T01:50:42.004Z,98749.53
2024-05-09T01:53:12.607Z,98746.66
2024-05-09T01:55:40.908Z,98744.00
2024-05-09T01:58:09.595Z,98740.53
2024-05-09T02:00:41.352Z,98743.41
2024-05-09T02:03:14.620Z,98742.75
2024-05-09T02:05:46.896Z,98736.00
2024-05-09T02:08:17.582Z,98739.84
2024-05-09T02:10:47.159Z,98740.22
2024-05-09T02:13:15.900Z,98740.00
2024-05-09T02:15:43.832Z,98732.41
2024-05-09T02:18:11.839Z,98738.34
2024-05-09T02:20:41.340Z,98735.25
2024-05-09T02:23:09.797Z,98739.72
2024-05-09T02:25:37.616Z,98750.19
2024-05-09T02:28:05.607Z,98746.50
2024-05-09T02:30:39.458Z,98746.50
2024-05-09T02:33:11.841Z,98747.53
2024-05-09T02:35:41.653Z,98739.91
2024-05-09T02:38:10.264Z,98740.75
2024-05-09T02:40:39.590Z,98748.72
2024-05-09T02:43:10.275Z,98746.69
2024-05-09T02:45:40.232Z,98752.47
2024-05-09T02:48:11.716Z,98749.59
2024-05-09T02:50:44.539Z,98750.41
2024-05-09T02:53:13.120Z,98754.91
2024-05-09T02:55:41.906Z,98746.50
2024-05-09T02:58:10.630Z,98753.81
2024-05-09T03:00:41.618Z,98755.41
2024-05-09T03:03:13.487Z,98750.69
2024-05-09T03:05:44.259Z,98748.41
2024-05-09T03:08:12.426Z,98751.22
2024-05-09T03:10:40.407Z,98753.06
2024-05-09T03:13:14.401Z,98744.94
2024-05-09T03:15:43.932Z,98749.38
2024-05-09T03:18:12.339Z,98743.09
2024-05-09T03:20:40.572Z,98745.31
2024-05-09T03:23:09.716Z,98748.50
2024-05-09T03:25:39.023Z,98745.59
2024-05-09T03:28:06.806Z,98749.09
2024-05-09T03:30:40.803Z,98752.56
2024-05-09T03:33:19.387Z,98748.72
2024-05-09T03:35:49.272Z,98742.38
2024-05-09T03:38:17.510Z,98745.31
2024-05-09T03:40:46.801Z,98746.06
2024-05-09T03:43:14.713Z,98752.75
2024-05-09T03:45:43.277Z,98750.22
2024-05-09T03:48:11.456Z,98755.19
2024-05-09T03:50:39.665Z,98753.09
2024-05-09T03:53:10.524Z,98749.38
2024-05-09T03:55:38.302Z,98751.91
2024-05-09T03:58:08.154Z,98753.09
2024-05-09T04:00:39.305Z,98745.16
2024-05-09T04:03:11.163Z,98746.41
2024-05-09T04:05:42.487Z,98747.69
2024-05-09T04:08:15.018Z,98753.53
2024-05-09T04:10:42.970Z,98741.66
2024-05-09T04:13:11.070Z,98741.50
2024-05-09T04:15:39.393Z,98741.25
2024-05-09T04:18:07.289Z,98742.78
2024-05-09T04:20:39.121Z,98743.13
2024-05-09T04:23:12.844Z,98742.28
2024-05-09T04:25:44.355Z,98748.66
2024-05-09T04:28:12.772Z,98740.66
2024-05-09T04:30:41.648Z,98737.03
2024-05-09T04:33:12.573Z,98735.06
2024-05-09T04:35:43.284Z,98748.00
2024-05-09T04:38:12.773Z,98744.38
2024-05-09T04:40:40.811Z,98739.50
2024-05-09T04:43:15.498Z,98752.28
2024-05-09T04:45:43.725Z,98742.50
2024-05-09T04:48:11.808Z,98756.13
2024-05-09T04:50:40.030Z,98755.78
2024-05-09T04:53:10.486Z,98764.78
2024-05-09T04:55:39.951Z,98761.44
2024-05-09T04:58:14.479Z,98758.06
2024-05-09T05:00:43.508Z,98752.44
2024-05-09T05:03:14.517Z,98752.91
2024-05-09T05:05:45.339Z,98755.97
2024-05-09T05:08:15.295Z,98751.06
2024-05-09T05:10:43.890Z,98762.53
2024-05-09T05:13:23.937Z,98762.97
2024-05-09T05:15:56.752Z,98756.19
2024-05-09T05:18:27.655Z,98762.81
2024-05-09T05:20:56.434Z,98760.59
2024-05-09T05:23:24.897Z,98762.22
2024-05-09T05:25:55.182Z,98756.16
2024-05-09T05:28:23.418Z,98762.06
2024-05-09T05:30:51.130Z,98766.72
2024-05-09T05:33:19.475Z,98759.63
2024-05-09T05:35:47.670Z,98755.88
2024-05-09T05:38:15.759Z,98756.44
2024-05-09T05:40:43.387Z,98756.91
2024-05-09T05:43:17.604Z,98760.34
2024-05-09T05:45:45.734Z,98767.19
2024-05-09T05:48:16.729Z,98769.50
2024-05-09T05:50:45.498Z,98766.59
2024-05-09T05:53:13.644Z,98766.75
2024-05-09T05:55:41.913Z,98771.13
2024-05-09T05:58:10.840Z,98767.66
2024-05-09T06:00:40.522Z,98775.22
2024-05-09T06:03:10.362Z,98767.38
2024-05-09T06:05:44.303Z,98771.94
2024-05-09T06:08:12.512Z,98778.22
2024-05-09T06:10:41.485Z,98781.72
2024-05-09T06:13:13.970Z,98782.56
2024-05-09T06:15:42.557Z,98781.16
2024-05-09T06:18:11.833Z,98778.66
2024-05-09T06:20:43.220Z,98790.88
2024-05-09T06:23:12.843Z,98782.69
2024-05-09T06:25:40.842Z,98786.75
2024-05-09T06:28:08.395Z,98790.81
2024-05-09T06:30:42.342Z,98790.03
2024-05-09T06:33:14.405Z,98789.44
2024-05-09T06:35:44.843Z,98788.91
2024-05-09T06:38:12.708Z,98795.88
2024-05-09T06:40:42.926Z,98784.63
2024-05-09T06:43:17.476Z,98794.31
2024-05-09T06:45:48.430Z,98787.59
2024-05-09T06:48:21.062Z,98789.81
2024-05-09T06:50:49.880Z,98793.28
2024-05-09T06:53:20.557Z,98795.16
2024-05-09T06:55:48.325Z,98789.47
2024-05-09T06:58:16.220Z,98788.63
2024-05-09T07:00:43.963Z,98788.88
2024-05-09T07:03:17.899Z,98785.41
2024-05-09T07:05:48.316Z,98790.59
2024-05-09T07:08:17.553Z,98791.94
2024-05-09T07:10:45.265Z,98783.69
2024-05-09T07:13:15.133Z,98789.22
2024-05-09T07:15:43.498Z,98786.94
2024-05-09T07:18:17.143Z,98781.34
2024-05-09T07:20:47.292Z,98783.84
2024-05-09T07:23:16.075Z,98786.72
2024-05-09T07:25:43.869Z,98791.94
2024-05-09T07:28:14.870Z,98800.53
2024-05-09T07:30:43.081Z,98806.00
2024-05-09T07:33:20.848Z,98795.75
2024-05-09T07:35:50.084Z,98798.63
2024-05-09T07:38:17.801Z,98793.72
2024-05-09T07:40:45.621Z,98798.63
2024-05-09T07:43:14.670Z,98796.53
2024-05-09T07:45:51.411Z,98801.91
2024-05-09T07:52:38.064Z,98787.00
2024-05-09T07:53:49.572Z,98785.22
2024-05-09T07:56:22.465Z,98790.28
2024-05-09T07:58:54.111Z,98784.06
2024-05-09T08:01:22.621Z,98790.19
2024-05-09T08:03:50.771Z,98786.00
2024-05-09T08:06:18.657Z,98782.75
2024-05-09T08:08:49.806Z,98781.44
2024-05-09T08:11:17.526Z,98779.25
2024-05-09T08:13:45.073Z,98778.94
2024-05-09T08:16:14.286Z,98773.13
2024-05-09T08:18:42.488Z,98784.78
2024-05-09T08:21:10.141Z,98783.06
2024-05-09T08:23:37.907Z,98786.09
2024-05-09T08:26:05.828Z,98780.91
2024-05-09T08:28:33.367Z,98788.66
2024-05-09T08:31:04.162Z,98785.56
2024-05-09T08:33:33.884Z,98783.50
2024-05-09T08:36:01.564Z,98790.78
2024-05-09T08:38:29.163Z,98790.13
2024-05-09T08:40:56.845Z,98781.84
2024-05-09T08:43:26.870Z,98785.22
2024-05-09T08:45:54.641Z,98787.78
2024-05-09T08:48:24.384Z,98780.25
2024-05-09T08:50:53.425Z,98776.91
2024-05-09T08:53:21.535Z,98775.72
2024-05-09T08:55:51.281Z,98770.41
2024-05-09T08:58:21.942Z,98777.91
2024-05-09T09:00:49.987Z,98775.31
2024-05-09T09:03:19.794Z,98762.84
2024-05-09T09:06:09.160Z,98762.66
2024-05-09T09:08:39.275Z,98759.81
2024-05-09T09:11:07.375Z,98762.66
2024-05-09T09:13:34.895Z,98765.47
2024-05-09T09:16:03.903Z,98769.16
2024-05-09T09:18:33.211Z,98770.81
2024-05-09T09:21:03.101Z,98767.56
2024-05-09T09:23:31.051Z,98774.31
2024-05-09T09:26:02.030Z,98764.56
2024-05-09T09:28:30.207Z,98761.16
2024-05-09T09:31:04.643Z,98770.16
2024-05-09T09:34:19.137Z,98766.19
2024-05-09T09:36:48.033Z,98761.47
2024-05-09T09:39:18.659Z,98771.28
2024-05-09T09:41:47.964Z,98775.81
2024-05-09T09:44:17.252Z,98783.59
2024-05-09T09:46:45.644Z,98782.09
2024-05-09T09:49:13.687Z,98771.88
2024-05-09T09:51:43.894Z,98780.28
2024-05-09T09:54:13.282Z,98767.91
2024-05-09T09:56:43.473Z,98775.41
2024-05-09T09:59:14.218Z,98767.63
2024-05-09T10:01:46.094Z,98768.81
2024-05-09T10:04:19.297Z,98776.78
2024-05-09T10:06:53.014Z,98768.84
2024-05-09T10:09:21.949Z,98757.00
2024-05-09T10:11:54.457Z,98763.94
2024-05-09T10:14:25.742Z,98777.16
2024-05-09T10:17:03.808Z,98769.09
2024-05-09T10:19:31.540Z,98760.78
2024-05-09T10:22:03.414Z,98765.16
2024-05-09T10:24:50.905Z,98761.13
2024-05-09T10:27:29.007Z,98767.47
2024-05-09T10:30:09.095Z,98757.88
2024-05-09T10:32:42.451Z,98759.44
2024-05-09T10:35:13.265Z,98756.97
2024-05-09T10:37:41.191Z,98750.78
2024-05-09T10:40:14.256Z,98753.28
2024-05-09T10:42:48.570Z,98752.41
2024-05-09T10:45:16.904Z,98749.34
2024-05-09T10:47:45.415Z,98753.41
2024-05-09T10:50:22.219Z,98745.28
2024-05-09T10:52:55.882Z,98749.38
2024-05-09T10:55:23.572Z,98752.84
2024-05-09T10:57:51.309Z,98741.81
2024-05-09T11:00:27.471Z,98734.16
2024-05-09T11:03:01.118Z,98726.88
2024-05-09T11:05:29.621Z,98726.88
2024-05-09T11:07:57.504Z,98739.56
2024-05-09T11:10:33.375Z,98738.00
2024-05-09T11:13:02.090Z,98735.19
2024-05-09T11:15:42.195Z,98730.00
2024-05-09T11:18:25.872Z,98733.56
2024-05-09T11:20:56.446Z,98732.91
2024-05-09T11:23:30.781Z,98730.97
2024-05-09T11:25:59.161Z,98727.19
2024-05-09T11:28:29.154Z,98713.16
2024-05-09T11:31:08.043Z,98711.72
2024-05-09T11:33:40.257Z,98709.13
2024-05-09T11:36:08.967Z,98702.34
2024-05-09T11:38:36.638Z,98707.94
2024-05-09T11:41:05.272Z,98707.94
2024-05-09T11:43:33.607Z,98705.75
2024-05-09T11:46:03.658Z,98705.66
2024-05-09T11:48:32.478Z,98707.88
2024-05-09T11:51:00.423Z,98709.28
2024-05-09T11:53:28.082Z,98701.69
2024-05-09T11:55:55.746Z,98708.09
2024-05-09T11:58:23.795Z,98689.34
2024-05-09T12:00:51.767Z,98703.59
2024-05-09T12:03:19.619Z,98690.00
2024-05-09T12:05:47.496Z,98684.81
2024-05-09T12:08:15.365Z,98685.69
2024-05-09T12:10:43.232Z,98680.84
2024-05-09T12:13:10.997Z,98684.47
2024-05-09T12:15:39.262Z,98687.09
2024-05-09T12:18:08.130Z,98685.41
2024-05-09T12:20:39.112Z,98675.78
2024-05-09T12:23:10.027Z,98680.94
2024-05-09T12:25:39.972Z,98679.81
2024-05-09T12:28:08.478Z,98673.53
2024-05-09T12:30:40.158Z,98678.09
2024-05-09T12:33:12.482Z,98671.50
2024-05-09T12:35:43.223Z,98680.25
2024-05-09T12:38:13.954Z,98664.75
2024-05-09T12:40:42.738Z,98663.88
2024-05-09T12:43:11.473Z,98654.47
2024-05-09T12:45:40.388Z,98654.91
2024-05-09T12:48:12.414Z,98651.19
2024-05-09T12:50:41.533Z,98652.00
2024-05-09T12:53:09.525Z,98646.25
2024-05-09T12:55:44.932Z,98644.03
2024-05-09T12:58:24.578Z,98642.03
2024-05-09T13:00:52.899Z,98637.09
2024-05-09T13:03:21.577Z,98640.19
2024-05-09T13:05:50.649Z,98628.69
2024-05-09T13:08:18.529Z,98625.25
2024-05-09T13:10:46.708Z,98625.88
2024-05-09T13:13:14.635Z,98631.72
2024-05-09T13:15:42.748Z,98630.78
2024-05-09T13:18:10.540Z,98631.03
2024-05-09T13:20:38.263Z,98622.66
2024-05-09T13:23:08.066Z,98628.00
2024-05-09T13:25:37.825Z,98620.16
2024-05-09T13:28:07.001Z,98618.81
2024-05-09T13:30:39.954Z,98617.47
2024-05-09T13:33:14.168Z,98610.56
2024-05-09T13:35:47.256Z,98611.06
2024-05-09T13:38:19.168Z,98606.88
2024-05-09T13:40:47.782Z,98597.81
2024-05-09T13:43:16.172Z,98605.50
2024-05-09T13:45:44.181Z,98607.19
2024-05-09T13:48:12.178Z,98598.34
2024-05-09T13:50:40.257Z,98602.75
2024-05-09T13:53:08.917Z,98598.47
2024-05-09T13:55:40.572Z,98601.47
2024-05-09T13:58:09.569Z,98602.00
2024-05-09T14:00:46.370Z,98591.66
2024-05-09T14:03:19.285Z,98600.47
2024-05-09T14:05:50.199Z,98591.25
2024-05-09T14:08:20.233Z,98591.78
2024-05-09T14:10:49.391Z,98579.25
2024-05-09T14:13:17.472Z,98574.88
2024-05-09T14:15:46.427Z,98582.31
2024-05-09T14:18:14.744Z,98574.44
2024-05-09T14:20:43.355Z,98564.63
2024-05-09T14:23:11.363Z,98566.16
2024-05-09T14:25:42.490Z,98561.22
2024-05-09T14:28:12.953Z,98569.19
2024-05-09T14:30:42.219Z,98570.47
2024-05-09T14:33:11.687Z,98573.56
2024-05-09T14:35:39.607Z,98561.38
2024-05-09T14:38:08.859Z,98561.34
2024-05-09T14:40:42.263Z,98559.97
2024-05-09T14:43:13.080Z,98557.28
2024-05-09T14:45:41.848Z,98553.88
2024-05-09T14:48:10.564Z,98559.84
2024-05-09T14:50:40.194Z,98555.41
2024-05-09T14:53:10.522Z,98549.16
2024-05-09T14:55:40.920Z,98537.25
2024-05-09T14:58:10.913Z,98539.88
2024-05-09T15:00:46.801Z,98540.22
2024-05-09T15:03:22.161Z,98535.34
2024-05-09T15:05:51.207Z,98532.06
2024-05-09T15:08:19.995Z,98532.16
2024-05-09T15:10:50.289Z,98533.81
2024-05-09T15:13:19.839Z,98532.50
2024-05-09T15:15:47.791Z,98526.81
2024-05-09T15:18:15.848Z,98527.06
2024-05-09T15:20:45.084Z,98525.47
2024-05-09T15:23:13.628Z,98531.94
2024-05-09T15:25:41.388Z,98519.25
2024-05-09T15:28:09.444Z,98521.16
2024-05-09T15:30:37.768Z,98518.16
2024-05-09T15:33:07.220Z,98507.31
2024-05-09T15:35:36.143Z,98516.00
2024-05-09T15:38:04.590Z,98510.84
2024-05-09T15:40:39.102Z,98511.88
2024-05-09T15:43:10.558Z,98510.31
2024-05-09T15:45:41.030Z,98508.69
2024-05-09T15:48:10.411Z,98505.72
2024-05-09T15:50:41.400Z,98497.88
2024-05-09T15:53:12.244Z,98503.28
2024-05-09T15:55:42.263Z,98504.34
2024-05-09T15:58:12.386Z,98495.97
2024-05-09T16:00:43.463Z,98492.41
2024-05-09T16:03:14.411Z,98498.38
2024-05-09T16:05:45.541Z,98506.53
2024-05-09T16:08:14.961Z,98500.03
2024-05-09T16:10:46.009Z,98497.88
2024-05-09T16:13:15.599Z,98493.53
2024-05-09T16:15:44.360Z,98496.94
2024-05-09T16:18:13.034Z,98493.97
2024-05-09T16:20:42.519Z,98495.84
2024-05-09T16:23:12.965Z,98495.25
2024-05-09T16:25:46.387Z,98487.19
2024-05-09T16:28:14.245Z,98484.75
2024-05-09T16:30:42.070Z,98488.34
2024-05-09T16:33:11.169Z,98491.78
2024-05-09T16:35:39.607Z,98490.69
2024-05-09T16:38:07.842Z,98487.28
2024-05-09T16:40:39.896Z,98480.38
2024-05-09T16:43:10.529Z,98487.16
2024-05-09T16:45:40.648Z,98485.56
2024-05-09T16:48:09.136Z,98488.84
2024-05-09T16:50:37.593Z,98489.63
2024-05-09T16:53:06.768Z,98486.41
2024-05-09T16:55:35.853Z,98481.25
2024-05-09T16:58:05.098Z,98481.53
2024-05-09T17:00:40.378Z,98483.13
2024-05-09T17:03:14.295Z,98483.13
2024-05-09T17:05:44.081Z,98475.53
2024-05-09T17:08:13.016Z,98480.41
2024-05-09T17:10:40.926Z,98474.41
2024-05-09T17:13:08.760Z,98471.47
2024-05-09T17:15:37.709Z,98470.38
2024-05-09T17:18:07.527Z,98472.53
2024-05-09T17:20:37.477Z,98469.25
2024-05-09T17:23:15.409Z,98468.19
2024-05-09T17:25:43.531Z,98478.63
2024-05-09T17:28:11.798Z,98475.63
2024-05-09T17:30:42.151Z,98472.63
2024-05-09T17:33:11.983Z,98477.16
2024-05-09T17:35:40.910Z,98477.34
2024-05-09T17:38:08.997Z,98472.38
2024-05-09T17:40:38.378Z,98474.75
2024-05-09T17:43:09.181Z,98478.66
2024-05-09T17:45:40.513Z,98470.78
2024-05-09T17:48:10.526Z,98473.19
2024-05-09T17:50:39.574Z,98475.31
2024-05-09T17:53:09.368Z,98479.84
2024-05-09T17:55:37.418Z,98475.97
2024-05-09T17:58:06.070Z,98471.00
2024-05-09T18:00:39.195Z,98467.06
2024-05-09T18:03:14.002Z,98470.78
2024-05-09T18:05:43.700Z,98472.31
2024-05-09T18:08:12.976Z,98475.19
2024-05-09T18:10:41.631Z,98474.31
2024-05-09T18:13:11.257Z,98471.00
2024-05-09T18:15:39.977Z,98474.66
2024-05-09T18:18:09.193Z,98468.09
2024-05-09T18:20:42.997Z,98473.63
2024-05-09T18:23:16.168Z,98474.06
2024-05-09T18:25:45.932Z,98469.69
2024-05-09T18:28:13.882Z,98474.91
2024-05-09T18:30:41.856Z,98475.09
2024-05-09T18:33:11.467Z,98473.31
2024-05-09T18:35:42.746Z,98471.28
2024-05-09T18:38:10.898Z,98478.38
2024-05-09T18:40:40.149Z,98473.91
2024-05-09T18:43:09.516Z,98486.13
2024-05-09T18:45:38.584Z,98484.41
2024-05-09T18:48:08.526Z,98482.38
2024-05-09T18:50:39.566Z,98484.16
2024-05-09T18:53:11.088Z,98486.19
2024-05-09T18:55:39.702Z,98486.59
2024-05-09T18:58:07.366Z,98495.03
2024-05-09T19:00:38.472Z,98497.63
2024-05-09T19:03:11.738Z,98497.53
2024-05-09T19:05:43.701Z,98504.69
2024-05-09T19:08:12.945Z,98506.22
2024-05-09T19:10:41.550Z,98506.69
2024-05-09T19:13:12.445Z,98505.03
2024-05-09T19:15:42.895Z,98492.09
2024-05-09T19:18:13.653Z,98497.09
2024-05-09T19:20:42.274Z,98499.47
2024-05-09T19:23:11.822Z,98504.03
2024-05-09T19:25:40.031Z,98506.94
2024-05-09T19:28:07.767Z,98500.66
2024-05-09T19:30:40.278Z,98500.31
2024-05-09T19:33:12.968Z,98505.13
2024-05-09T19:35:42.361Z,98503.72
2024-05-09T19:38:10.771Z,98504.75
2024-05-09T19:40:38.548Z,98503.38
2024-05-09T19:43:06.972Z,98503.00
2024-05-09T19:45:35.783Z,98509.44
2024-05-09T19:48:05.508Z,98502.94
2024-05-09T19:50:41.317Z,98510.38
2024-05-09T19:53:12.983Z,98508.66
2024-05-09T19:55:41.617Z,98515.78
2024-05-09T19:58:10.474Z,98518.13
2024-05-09T20:00:41.408Z,98518.59
2024-05-09T20:03:14.967Z,98514.16
2024-05-09T20:05:47.069Z,98513.47
2024-05-09T20:08:15.364Z,98515.22
2024-05-09T20:10:43.209Z,98513.59
2024-05-09T20:13:11.101Z,98517.78
2024-05-09T20:15:40.192Z,98511.47
2024-05-09T20:18:08.201Z,98514.88
2024-05-09T20:20:40.064Z,98515.56
2024-05-09T20:23:14.384Z,98517.31
2024-05-09T20:25:42.895Z,98518.81
2024-05-09T20:28:10.857Z,98519.53
2024-05-09T20:30:39.072Z,98513.81
2024-05-09T20:33:08.069Z,98519.63
2024-05-09T20:35:37.031Z,98523.34
2024-05-09T20:38:05.448Z,98514.38
2024-05-09T20:40:37.154Z,98522.88
2024-05-09T20:43:08.600Z,98521.09
2024-05-09T20:45:36.638Z,98516.78
2024-05-09T20:48:04.954Z,98518.50
2024-05-09T20:50:38.586Z,98504.41
2024-05-09T20:53:11.062Z,98508.38
2024-05-09T20:55:39.897Z,98513.13
2024-05-09T20:58:08.280Z,98520.56
2024-05-09T21:00:40.362Z,98513.59
2024-05-09T21:03:12.719Z,98519.41
2024-05-09T21:05:41.245Z,98525.44
2024-05-09T21:08:09.367Z,98526.94
2024-05-09T21:10:37.651Z,98523.69
2024-05-09T21:13:06.744Z,98529.03
2024-05-09T21:15:35.836Z,98525.41
2024-05-09T21:18:04.574Z,98521.78
2024-05-09T21:20:34.997Z,98519.75
2024-05-09T21:23:03.822Z,98519.19
2024-05-09T21:25:32.133Z,98523.13
2024-05-09T21:28:00.828Z,98523.34
2024-05-09T21:30:38.427Z,98511.03
2024-05-09T21:33:11.762Z,98521.97
2024-05-09T21:35:41.672Z,98510.50
2024-05-09T21:38:09.359Z,98515.88
2024-05-09T21:40:38.204Z,98513.06
2024-05-09T21:43:07.949Z,98519.69
2024-05-09T21:45:36.605Z,98521.75
2024-05-09T21:48:05.809Z,98518.94
2024-05-09T21:50:40.032Z,98506.00
2024-05-09T21:53:11.764Z,98511.34
2024-05-09T21:55:39.901Z,98508.31
2024-05-09T21:58:07.849Z,98511.00
2024-05-09T22:00:39.319Z,98512.84
2024-05-09T22:03:08.577Z,98518.41
2024-05-09T22:05:37.820Z,98517.03
2024-05-09T22:08:05.959Z,98512.13
2024-05-09T22:10:35.937Z,98508.63
2024-05-09T22:13:06.386Z,98508.50
2024-05-09T22:15:39.884Z,98517.78
2024-05-09T22:18:09.767Z,98507.97
2024-05-09T22:20:45.122Z,98518.66
2024-05-09T22:23:15.161Z,98511.69
2024-05-09T22:25:42.741Z,98514.81
2024-05-09T22:28:10.572Z,98516.63
2024-05-09T22:30:39.961Z,98513.41
2024-05-09T22:33:10.120Z,98511.28
2024-05-09T22:35:40.734Z,98513.97
2024-05-09T22:38:08.851Z,98508.06
2024-05-09T22:40:46.377Z,98514.66
2024-05-09T22:43:22.207Z,98508.69
2024-05-09T22:45:52.295Z,98508.94
2024-05-09T22:48:20.589Z,98507.53
2024-05-09T22:50:48.749Z,98510.47
2024-05-09T22:53:16.574Z,98511.34
2024-05-09T22:55:44.282Z,98506.81
2024-05-09T22:58:11.822Z,98509.34
2024-05-09T23:00:39.617Z,98499.91
2024-05-09T23:03:07.220Z,98500.56
2024-05-09T23:05:34.929Z,98490.09
2024-05-09T23:08:03.044Z,98492.59
2024-05-09T23:10:36.131Z,98494.91
2024-05-09T23:13:08.822Z,98496.75
2024-05-09T23:15:40.448Z,98499.00
2024-05-09T23:18:08.598Z,98486.44
2024-05-09T23:20:39.135Z,98490.38
2024-05-09T23:23:08.978Z,98493.28
2024-05-09T23:25:37.755Z,98492.31
2024-05-09T23:28:06.247Z,98492.75
2024-05-09T23:30:38.511Z,98491.38
2024-05-09T23:33:12.404Z,98493.69
2024-05-09T23:35:44.494Z,98488.78
2024-05-09T23:38:13.004Z,98490.84
2024-05-09T23:40:42.322Z,98487.56
2024-05-09T23:43:12.474Z,98491.72
2024-05-09T23:45:41.447Z,98495.44
2024-05-09T23:48:10.150Z,98491.91
2024-05-09T23:50:39.585Z,98483.31
2024-05-09T23:53:09.524Z,98491.78
2024-05-09T23:55:38.458Z,98484.78
2024-05-09T23:58:09.447Z,98482.97
